sensor_id;sensor_type;location;lat;lon;timestamp;P1;P2;P0
42002;PMS7003;27693;50.506;30.832;2023-12-20T00:00:12;21.90;17.80;14.60
42002;PMS7003;27693;50.506;30.832;2023-12-20T00:01:15;23.36;20.09;14.09
42002;PMS7003;27693;50.506;30.832;2023-12-20T00:02:17;23.30;19.10;12.50
42002;PMS7003;27693;50.506;30.832;2023-12-20T00:03:21;26.40;19.20;13.00
42002;PMS7003;27693;50.506;30.832;2023-12-20T00:04:23;30.30;25.10;18.40
42002;PMS7003;27693;50.506;30.832;2023-12-20T00:05:26;23.10;20.10;13.80
42002;PMS7003;27693;50.506;30.832;2023-12-20T00:06:29;27.80;22.40;16.70
42002;PMS7003;27693;50.506;30.832;2023-12-20T00:07:31;22.50;18.40;13.00
42002;PMS7003;27693;50.506;30.832;2023-12-20T00:08:34;22.90;20.00;13.30
42002;PMS7003;27693;50.506;30.832;2023-12-20T00:09:37;23.80;19.00;13.40
42002;PMS7003;27693;50.506;30.832;2023-12-20T00:10:40;24.90;20.70;15.70
42002;PMS7003;27693;50.506;30.832;2023-12-20T00:11:42;28.90;23.70;16.00
42002;PMS7003;27693;50.506;30.832;2023-12-20T00:12:44;23.90;21.00;14.80
42002;PMS7003;27693;50.506;30.832;2023-12-20T00:13:46;25.20;19.50;15.50
42002;PMS7003;27693;50.506;30.832;2023-12-20T00:14:51;27.10;22.80;14.50
42002;PMS7003;27693;50.506;30.832;2023-12-20T00:15:53;26.20;24.20;17.00
42002;PMS7003;27693;50.506;30.832;2023-12-20T00:16:56;24.80;20.80;13.20
42002;PMS7003;27693;50.506;30.832;2023-12-20T00:17:58;23.20;19.50;14.00
42002;PMS7003;27693;50.506;30.832;2023-12-20T00:19:01;18.00;15.90;11.00
42002;PMS7003;27693;50.506;30.832;2023-12-20T00:20:04;25.50;22.60;14.80
42002;PMS7003;27693;50.506;30.832;2023-12-20T00:21:08;24.90;20.30;14.50
42002;PMS7003;27693;50.506;30.832;2023-12-20T00:22:10;22.30;19.30;14.30
42002;PMS7003;27693;50.506;30.832;2023-12-20T00:23:12;22.80;20.20;13.70
42002;PMS7003;27693;50.506;30.832;2023-12-20T00:24:14;25.90;22.70;15.50
42002;PMS7003;27693;50.506;30.832;2023-12-20T00:25:18;18.70;16.10;9.00
42002;PMS7003;27693;50.506;30.832;2023-12-20T00:26:20;28.70;22.50;15.10
42002;PMS7003;27693;50.506;30.832;2023-12-20T00:27:23;28.90;22.90;16.90
42002;PMS7003;27693;50.506;30.832;2023-12-20T00:28:25;22.90;20.70;13.30
42002;PMS7003;27693;50.506;30.832;2023-12-20T00:29:27;24.60;22.00;15.50
42002;PMS7003;27693;50.506;30.832;2023-12-20T00:30:30;26.33;21.22;13.56
42002;PMS7003;27693;50.506;30.832;2023-12-20T00:31:32;26.80;21.40;14.20
42002;PMS7003;27693;50.506;30.832;2023-12-20T00:32:35;27.30;20.00;14.30
42002;PMS7003;27693;50.506;30.832;2023-12-20T00:33:37;27.90;22.90;15.80
42002;PMS7003;27693;50.506;30.832;2023-12-20T00:34:41;26.30;20.50;14.20
42002;PMS7003;27693;50.506;30.832;2023-12-20T00:35:44;30.60;24.40;15.90
42002;PMS7003;27693;50.506;30.832;2023-12-20T00:36:48;30.10;22.90;15.20
42002;PMS7003;27693;50.506;30.832;2023-12-20T00:37:51;30.20;23.20;17.20
42002;PMS7003;27693;50.506;30.832;2023-12-20T00:38:53;25.00;21.60;15.20
42002;PMS7003;27693;50.506;30.832;2023-12-20T00:39:57;26.80;21.20;15.40
42002;PMS7003;27693;50.506;30.832;2023-12-20T00:41:04;23.20;19.80;15.00
42002;PMS7003;27693;50.506;30.832;2023-12-20T00:42:06;25.00;22.30;17.00
42002;PMS7003;27693;50.506;30.832;2023-12-20T00:43:09;26.00;22.00;15.90
42002;PMS7003;27693;50.506;30.832;2023-12-20T00:44:12;24.40;20.90;14.60
42002;PMS7003;27693;50.506;30.832;2023-12-20T00:45:14;25.50;22.70;15.90
42002;PMS7003;27693;50.506;30.832;2023-12-20T00:46:18;26.60;19.90;12.50
42002;PMS7003;27693;50.506;30.832;2023-12-20T00:47:21;24.36;21.27;16.45
42002;PMS7003;27693;50.506;30.832;2023-12-20T00:48:23;24.50;20.20;15.00
42002;PMS7003;27693;50.506;30.832;2023-12-20T00:49:26;26.40;20.10;15.20
42002;PMS7003;27693;50.506;30.832;2023-12-20T00:50:29;23.27;20.73;15.27
42002;PMS7003;27693;50.506;30.832;2023-12-20T00:51:32;21.40;18.50;13.90
42002;PMS7003;27693;50.506;30.832;2023-12-20T00:52:35;22.70;18.20;14.10
42002;PMS7003;27693;50.506;30.832;2023-12-20T00:53:38;22.40;19.70;14.20
42002;PMS7003;27693;50.506;30.832;2023-12-20T00:54:40;22.20;16.20;10.30
42002;PMS7003;27693;50.506;30.832;2023-12-20T00:55:44;18.70;17.10;12.20
42002;PMS7003;27693;50.506;30.832;2023-12-20T00:56:49;24.20;19.30;13.50
42002;PMS7003;27693;50.506;30.832;2023-12-20T00:57:52;21.45;18.27;13.00
42002;PMS7003;27693;50.506;30.832;2023-12-20T00:58:55;22.50;17.90;12.90
42002;PMS7003;27693;50.506;30.832;2023-12-20T00:59:59;21.70;17.30;13.10
42002;PMS7003;27693;50.506;30.832;2023-12-20T01:01:01;20.20;17.80;13.70
42002;PMS7003;27693;50.506;30.832;2023-12-20T01:02:04;20.70;18.80;13.40
42002;PMS7003;27693;50.506;30.832;2023-12-20T01:03:07;24.70;19.70;15.60
42002;PMS7003;27693;50.506;30.832;2023-12-20T01:04:09;20.60;18.70;13.00
42002;PMS7003;27693;50.506;30.832;2023-12-20T01:05:12;20.70;18.90;12.60
42002;PMS7003;27693;50.506;30.832;2023-12-20T01:06:18;20.30;18.40;12.80
42002;PMS7003;27693;50.506;30.832;2023-12-20T01:07:21;20.30;16.90;11.80
42002;PMS7003;27693;50.506;30.832;2023-12-20T01:08:23;17.60;16.50;12.20
42002;PMS7003;27693;50.506;30.832;2023-12-20T01:09:26;19.40;17.70;12.70
42002;PMS7003;27693;50.506;30.832;2023-12-20T01:10:29;23.10;17.10;13.70
42002;PMS7003;27693;50.506;30.832;2023-12-20T01:11:33;17.90;17.00;12.60
42002;PMS7003;27693;50.506;30.832;2023-12-20T01:12:36;22.00;19.00;15.60
42002;PMS7003;27693;50.506;30.832;2023-12-20T01:13:39;21.40;17.60;13.10
42002;PMS7003;27693;50.506;30.832;2023-12-20T01:14:42;21.70;17.70;13.50
42002;PMS7003;27693;50.506;30.832;2023-12-20T01:15:45;21.55;17.36;13.55
42002;PMS7003;27693;50.506;30.832;2023-12-20T01:16:50;20.40;16.50;12.00
42002;PMS7003;27693;50.506;30.832;2023-12-20T01:17:52;22.50;15.60;10.90
42002;PMS7003;27693;50.506;30.832;2023-12-20T01:18:55;23.60;18.20;13.90
42002;PMS7003;27693;50.506;30.832;2023-12-20T01:19:58;20.60;17.50;12.70
42002;PMS7003;27693;50.506;30.832;2023-12-20T01:21:01;18.70;17.50;12.80
42002;PMS7003;27693;50.506;30.832;2023-12-20T01:22:06;18.90;14.50;13.30
42002;PMS7003;27693;50.506;30.832;2023-12-20T01:23:08;22.20;19.00;14.20
42002;PMS7003;27693;50.506;30.832;2023-12-20T01:24:15;24.40;19.30;14.60
42002;PMS7003;27693;50.506;30.832;2023-12-20T01:25:18;24.60;19.00;14.90
42002;PMS7003;27693;50.506;30.832;2023-12-20T01:26:21;20.00;16.30;11.50
42002;PMS7003;27693;50.506;30.832;2023-12-20T01:27:24;27.20;21.60;16.70
42002;PMS7003;27693;50.506;30.832;2023-12-20T01:28:27;22.20;20.50;14.30
42002;PMS7003;27693;50.506;30.832;2023-12-20T01:29:30;20.64;18.36;11.64
42002;PMS7003;27693;50.506;30.832;2023-12-20T01:30:34;23.50;19.40;12.80
42002;PMS7003;27693;50.506;30.832;2023-12-20T01:31:38;21.60;19.60;15.80
42002;PMS7003;27693;50.506;30.832;2023-12-20T01:32:40;23.20;18.80;14.70
42002;PMS7003;27693;50.506;30.832;2023-12-20T01:33:42;17.40;15.20;11.10
42002;PMS7003;27693;50.506;30.832;2023-12-20T01:34:45;25.91;21.45;14.82
42002;PMS7003;27693;50.506;30.832;2023-12-20T01:35:47;24.30;19.50;15.20
42002;PMS7003;27693;50.506;30.832;2023-12-20T01:36:49;21.00;16.00;12.60
42002;PMS7003;27693;50.506;30.832;2023-12-20T01:37:53;25.40;19.70;14.70
42002;PMS7003;27693;50.506;30.832;2023-12-20T01:38:57;21.50;18.50;13.30
42002;PMS7003;27693;50.506;30.832;2023-12-20T01:39:59;21.60;17.60;13.00
42002;PMS7003;27693;50.506;30.832;2023-12-20T01:41:02;23.00;20.10;14.00
42002;PMS7003;27693;50.506;30.832;2023-12-20T01:42:05;20.70;15.90;11.60
42002;PMS7003;27693;50.506;30.832;2023-12-20T01:43:08;24.40;17.70;14.00
42002;PMS7003;27693;50.506;30.832;2023-12-20T01:44:11;20.00;15.50;10.00
42002;PMS7003;27693;50.506;30.832;2023-12-20T01:45:13;21.80;18.40;13.10
42002;PMS7003;27693;50.506;30.832;2023-12-20T01:46:17;18.40;15.90;12.30
42002;PMS7003;27693;50.506;30.832;2023-12-20T01:47:20;23.80;17.50;13.60
42002;PMS7003;27693;50.506;30.832;2023-12-20T01:48:24;22.09;17.73;13.55
42002;PMS7003;27693;50.506;30.832;2023-12-20T01:49:28;22.00;17.70;13.20
42002;PMS7003;27693;50.506;30.832;2023-12-20T01:50:31;24.50;20.50;14.90
42002;PMS7003;27693;50.506;30.832;2023-12-20T01:51:33;24.80;21.90;15.60
42002;PMS7003;27693;50.506;30.832;2023-12-20T01:52:37;21.30;18.10;13.70
42002;PMS7003;27693;50.506;30.832;2023-12-20T01:53:42;21.90;17.90;14.20
42002;PMS7003;27693;50.506;30.832;2023-12-20T01:54:46;26.40;21.50;15.80
42002;PMS7003;27693;50.506;30.832;2023-12-20T01:55:52;15.30;11.70;6.50
42002;PMS7003;27693;50.506;30.832;2023-12-20T01:57:01;17.90;16.50;12.60
42002;PMS7003;27693;50.506;30.832;2023-12-20T01:58:05;23.10;16.10;12.00
42002;PMS7003;27693;50.506;30.832;2023-12-20T01:59:12;23.30;17.80;12.90
42002;PMS7003;27693;50.506;30.832;2023-12-20T02:00:16;22.40;16.50;13.00
42002;PMS7003;27693;50.506;30.832;2023-12-20T02:01:20;21.60;18.30;13.60
42002;PMS7003;27693;50.506;30.832;2023-12-20T02:02:23;19.80;16.70;12.60
42002;PMS7003;27693;50.506;30.832;2023-12-20T02:03:29;17.10;14.90;10.50
42002;PMS7003;27693;50.506;30.832;2023-12-20T02:04:32;21.40;18.70;13.50
42002;PMS7003;27693;50.506;30.832;2023-12-20T02:05:36;21.50;17.80;13.10
42002;PMS7003;27693;50.506;30.832;2023-12-20T02:06:41;11.70;8.30;5.60
42002;PMS7003;27693;50.506;30.832;2023-12-20T02:07:46;18.40;15.90;13.00
42002;PMS7003;27693;50.506;30.832;2023-12-20T02:08:50;20.20;17.00;13.40
42002;PMS7003;27693;50.506;30.832;2023-12-20T02:09:53;20.60;17.70;11.50
42002;PMS7003;27693;50.506;30.832;2023-12-20T02:10:58;23.70;18.10;12.40
42002;PMS7003;27693;50.506;30.832;2023-12-20T02:12:02;19.60;17.10;12.80
42002;PMS7003;27693;50.506;30.832;2023-12-20T02:13:05;22.20;16.80;12.10
42002;PMS7003;27693;50.506;30.832;2023-12-20T02:14:07;22.30;17.80;13.60
42002;PMS7003;27693;50.506;30.832;2023-12-20T02:15:10;17.70;15.70;11.00
42002;PMS7003;27693;50.506;30.832;2023-12-20T02:16:13;20.55;17.00;12.82
42002;PMS7003;27693;50.506;30.832;2023-12-20T02:17:15;19.90;16.40;12.20
42002;PMS7003;27693;50.506;30.832;2023-12-20T02:18:18;18.09;15.36;10.55
42002;PMS7003;27693;50.506;30.832;2023-12-20T02:19:21;25.20;18.30;13.30
42002;PMS7003;27693;50.506;30.832;2023-12-20T02:20:24;18.30;15.20;11.80
42002;PMS7003;27693;50.506;30.832;2023-12-20T02:21:33;21.70;19.00;14.20
42002;PMS7003;27693;50.506;30.832;2023-12-20T02:22:39;20.00;18.50;13.80
42002;PMS7003;27693;50.506;30.832;2023-12-20T02:23:41;19.00;14.70;8.70
42002;PMS7003;27693;50.506;30.832;2023-12-20T02:24:43;19.70;17.70;13.60
42002;PMS7003;27693;50.506;30.832;2023-12-20T02:25:46;23.00;16.70;12.80
42002;PMS7003;27693;50.506;30.832;2023-12-20T02:26:48;19.20;17.10;11.50
42002;PMS7003;27693;50.506;30.832;2023-12-20T02:27:51;19.73;16.00;13.09
42002;PMS7003;27693;50.506;30.832;2023-12-20T02:28:54;22.30;18.40;11.80
42002;PMS7003;27693;50.506;30.832;2023-12-20T02:29:56;16.80;15.00;11.40
42002;PMS7003;27693;50.506;30.832;2023-12-20T02:31:00;22.00;16.60;12.30
42002;PMS7003;27693;50.506;30.832;2023-12-20T02:32:03;15.80;14.10;9.00
42002;PMS7003;27693;50.506;30.832;2023-12-20T02:33:07;19.60;16.90;13.50
42002;PMS7003;27693;50.506;30.832;2023-12-20T02:34:11;18.50;17.20;13.70
42002;PMS7003;27693;50.506;30.832;2023-12-20T02:35:14;18.82;15.55;14.00
42002;PMS7003;27693;50.506;30.832;2023-12-20T02:36:17;21.82;18.36;13.64
42002;PMS7003;27693;50.506;30.832;2023-12-20T02:37:19;18.90;16.70;13.20
42002;PMS7003;27693;50.506;30.832;2023-12-20T02:38:22;18.60;18.60;13.30
42002;PMS7003;27693;50.506;30.832;2023-12-20T02:39:24;8.30;7.60;5.00
42002;PMS7003;27693;50.506;30.832;2023-12-20T02:40:27;19.55;17.36;12.91
42002;PMS7003;27693;50.506;30.832;2023-12-20T02:41:29;15.00;13.40;8.60
42002;PMS7003;27693;50.506;30.832;2023-12-20T02:42:32;21.20;16.40;13.20
42002;PMS7003;27693;50.506;30.832;2023-12-20T02:43:35;18.18;15.18;10.27
42002;PMS7003;27693;50.506;30.832;2023-12-20T02:44:37;17.00;14.10;11.90
42002;PMS7003;27693;50.506;30.832;2023-12-20T02:45:39;18.30;16.60;13.70
42002;PMS7003;27693;50.506;30.832;2023-12-20T02:46:42;19.27;16.55;12.18
42002;PMS7003;27693;50.506;30.832;2023-12-20T02:47:44;18.20;13.20;9.40
42002;PMS7003;27693;50.506;30.832;2023-12-20T02:48:48;16.30;12.50;9.50
42002;PMS7003;27693;50.506;30.832;2023-12-20T02:49:50;19.40;15.70;12.60
42002;PMS7003;27693;50.506;30.832;2023-12-20T02:50:56;17.40;13.20;10.00
42002;PMS7003;27693;50.506;30.832;2023-12-20T02:51:59;19.00;16.20;11.90
42002;PMS7003;27693;50.506;30.832;2023-12-20T02:53:01;14.20;10.50;7.10
42002;PMS7003;27693;50.506;30.832;2023-12-20T02:54:04;17.27;15.18;10.36
42002;PMS7003;27693;50.506;30.832;2023-12-20T02:55:07;18.90;14.60;10.70
42002;PMS7003;27693;50.506;30.832;2023-12-20T02:56:10;18.20;16.60;12.40
42002;PMS7003;27693;50.506;30.832;2023-12-20T02:57:13;17.80;15.40;10.50
42002;PMS7003;27693;50.506;30.832;2023-12-20T02:58:16;16.36;15.00;12.09
42002;PMS7003;27693;50.506;30.832;2023-12-20T02:59:19;19.09;17.55;13.27
42002;PMS7003;27693;50.506;30.832;2023-12-20T03:00:23;15.00;12.00;8.50
42002;PMS7003;27693;50.506;30.832;2023-12-20T03:01:26;20.30;15.80;12.20
42002;PMS7003;27693;50.506;30.832;2023-12-20T03:02:29;13.80;13.80;10.20
42002;PMS7003;27693;50.506;30.832;2023-12-20T03:03:31;16.00;12.90;8.60
42002;PMS7003;27693;50.506;30.832;2023-12-20T03:04:34;21.30;16.10;11.70
42002;PMS7003;27693;50.506;30.832;2023-12-20T03:05:37;16.80;15.40;11.50
42002;PMS7003;27693;50.506;30.832;2023-12-20T03:06:39;16.20;13.50;8.20
42002;PMS7003;27693;50.506;30.832;2023-12-20T03:07:41;17.80;16.20;12.10
42002;PMS7003;27693;50.506;30.832;2023-12-20T03:08:45;15.50;14.40;11.20
42002;PMS7003;27693;50.506;30.832;2023-12-20T03:09:47;15.20;13.40;10.70
42002;PMS7003;27693;50.506;30.832;2023-12-20T03:10:52;18.10;14.90;12.40
42002;PMS7003;27693;50.506;30.832;2023-12-20T03:11:55;18.55;15.45;12.55
42002;PMS7003;27693;50.506;30.832;2023-12-20T03:12:57;16.90;15.20;11.20
42002;PMS7003;27693;50.506;30.832;2023-12-20T03:14:00;14.60;13.10;10.30
42002;PMS7003;27693;50.506;30.832;2023-12-20T03:15:03;10.00;9.00;8.10
42002;PMS7003;27693;50.506;30.832;2023-12-20T03:16:09;17.10;15.30;11.60
42002;PMS7003;27693;50.506;30.832;2023-12-20T03:17:12;14.20;10.60;6.80
42002;PMS7003;27693;50.506;30.832;2023-12-20T03:18:14;19.00;14.20;10.40
42002;PMS7003;27693;50.506;30.832;2023-12-20T03:19:17;18.50;14.50;11.30
42002;PMS7003;27693;50.506;30.832;2023-12-20T03:20:22;15.30;14.20;9.80
42002;PMS7003;27693;50.506;30.832;2023-12-20T03:21:25;17.20;11.80;7.30
42002;PMS7003;27693;50.506;30.832;2023-12-20T03:22:27;17.70;13.20;10.10
42002;PMS7003;27693;50.506;30.832;2023-12-20T03:23:29;16.70;12.40;9.20
42002;PMS7003;27693;50.506;30.832;2023-12-20T03:24:34;18.40;14.50;10.70
42002;PMS7003;27693;50.506;30.832;2023-12-20T03:25:36;17.60;15.80;11.20
42002;PMS7003;27693;50.506;30.832;2023-12-20T03:26:39;14.00;12.36;9.55
42002;PMS7003;27693;50.506;30.832;2023-12-20T03:27:41;17.10;14.80;10.80
42002;PMS7003;27693;50.506;30.832;2023-12-20T03:28:44;16.36;12.55;8.91
42002;PMS7003;27693;50.506;30.832;2023-12-20T03:29:47;15.50;11.80;9.80
42002;PMS7003;27693;50.506;30.832;2023-12-20T03:30:49;16.10;15.40;10.10
42002;PMS7003;27693;50.506;30.832;2023-12-20T03:31:52;15.80;11.90;8.00
42002;PMS7003;27693;50.506;30.832;2023-12-20T03:32:55;15.50;13.50;9.60
42002;PMS7003;27693;50.506;30.832;2023-12-20T03:33:57;6.40;4.00;3.10
42002;PMS7003;27693;50.506;30.832;2023-12-20T03:35:00;14.40;10.60;7.10
42002;PMS7003;27693;50.506;30.832;2023-12-20T03:36:04;14.10;11.60;8.90
42002;PMS7003;27693;50.506;30.832;2023-12-20T03:37:07;19.82;15.36;11.18
42002;PMS7003;27693;50.506;30.832;2023-12-20T03:38:09;17.90;14.50;9.90
42002;PMS7003;27693;50.506;30.832;2023-12-20T03:39:12;15.27;10.18;7.73
42002;PMS7003;27693;50.506;30.832;2023-12-20T03:40:17;14.20;13.40;10.90
42002;PMS7003;27693;50.506;30.832;2023-12-20T03:41:19;16.70;13.70;10.10
42002;PMS7003;27693;50.506;30.832;2023-12-20T03:42:22;17.40;14.90;11.60
42002;PMS7003;27693;50.506;30.832;2023-12-20T03:43:24;20.40;15.00;11.00
42002;PMS7003;27693;50.506;30.832;2023-12-20T03:44:27;16.40;13.80;10.60
42002;PMS7003;27693;50.506;30.832;2023-12-20T03:45:31;16.10;13.70;10.60
42002;PMS7003;27693;50.506;30.832;2023-12-20T03:46:34;16.50;13.20;8.40
42002;PMS7003;27693;50.506;30.832;2023-12-20T03:47:36;17.60;13.70;9.80
42002;PMS7003;27693;50.506;30.832;2023-12-20T03:48:39;14.60;11.90;8.50
42002;PMS7003;27693;50.506;30.832;2023-12-20T03:49:41;16.30;12.50;9.20
42002;PMS7003;27693;50.506;30.832;2023-12-20T03:50:43;16.00;11.30;9.10
42002;PMS7003;27693;50.506;30.832;2023-12-20T03:51:45;17.00;14.60;12.00
42002;PMS7003;27693;50.506;30.832;2023-12-20T03:52:49;15.70;14.40;10.30
42002;PMS7003;27693;50.506;30.832;2023-12-20T03:53:53;17.80;15.00;11.20
42002;PMS7003;27693;50.506;30.832;2023-12-20T03:54:56;15.50;13.60;9.10
42002;PMS7003;27693;50.506;30.832;2023-12-20T03:55:58;20.60;16.00;12.40
42002;PMS7003;27693;50.506;30.832;2023-12-20T03:57:01;15.10;13.30;10.80
42002;PMS7003;27693;50.506;30.832;2023-12-20T03:58:04;19.10;16.40;12.10
42002;PMS7003;27693;50.506;30.832;2023-12-20T03:59:06;15.00;15.00;11.70
42002;PMS7003;27693;50.506;30.832;2023-12-20T04:00:09;16.70;14.10;11.20
42002;PMS7003;27693;50.506;30.832;2023-12-20T04:01:13;18.40;14.70;10.60
42002;PMS7003;27693;50.506;30.832;2023-12-20T04:02:15;21.10;16.30;11.30
42002;PMS7003;27693;50.506;30.832;2023-12-20T04:03:19;21.40;17.40;14.80
42002;PMS7003;27693;50.506;30.832;2023-12-20T04:04:22;19.50;14.80;11.30
42002;PMS7003;27693;50.506;30.832;2023-12-20T04:05:24;18.80;15.90;12.00
42002;PMS7003;27693;50.506;30.832;2023-12-20T04:06:26;18.80;14.20;8.70
42002;PMS7003;27693;50.506;30.832;2023-12-20T04:07:30;21.50;16.50;11.30
42002;PMS7003;27693;50.506;30.832;2023-12-20T04:08:32;15.30;14.30;10.00
42002;PMS7003;27693;50.506;30.832;2023-12-20T04:09:34;16.30;13.20;9.70
42002;PMS7003;27693;50.506;30.832;2023-12-20T04:10:37;14.20;9.90;7.10
42002;PMS7003;27693;50.506;30.832;2023-12-20T04:11:40;18.91;13.91;11.18
42002;PMS7003;27693;50.506;30.832;2023-12-20T04:12:42;13.80;13.20;10.30
42002;PMS7003;27693;50.506;30.832;2023-12-20T04:13:44;17.00;15.30;11.60
42002;PMS7003;27693;50.506;30.832;2023-12-20T04:14:46;18.30;13.40;10.70
42002;PMS7003;27693;50.506;30.832;2023-12-20T04:15:49;18.60;17.50;12.30
42002;PMS7003;27693;50.506;30.832;2023-12-20T04:16:53;17.30;13.50;10.70
42002;PMS7003;27693;50.506;30.832;2023-12-20T04:17:56;18.00;13.80;9.80
42002;PMS7003;27693;50.506;30.832;2023-12-20T04:18:58;23.60;16.30;12.30
42002;PMS7003;27693;50.506;30.832;2023-12-20T04:20:01;14.36;13.64;11.73
42002;PMS7003;27693;50.506;30.832;2023-12-20T04:21:04;17.90;15.20;11.60
42002;PMS7003;27693;50.506;30.832;2023-12-20T04:22:07;20.70;17.00;13.30
42002;PMS7003;27693;50.506;30.832;2023-12-20T04:23:11;14.70;11.40;8.50
42002;PMS7003;27693;50.506;30.832;2023-12-20T04:24:13;16.20;13.50;10.60
42002;PMS7003;27693;50.506;30.832;2023-12-20T04:25:15;22.20;15.90;12.80
42002;PMS7003;27693;50.506;30.832;2023-12-20T04:26:18;22.20;19.30;14.30
42002;PMS7003;27693;50.506;30.832;2023-12-20T04:27:21;27.60;22.30;16.40
42002;PMS7003;27693;50.506;30.832;2023-12-20T04:28:23;21.20;21.20;16.30
42002;PMS7003;27693;50.506;30.832;2023-12-20T04:29:26;25.20;21.80;16.70
42002;PMS7003;27693;50.506;30.832;2023-12-20T04:30:30;18.10;16.80;14.20
42002;PMS7003;27693;50.506;30.832;2023-12-20T04:31:32;23.80;19.70;14.20
42002;PMS7003;27693;50.506;30.832;2023-12-20T04:32:37;23.10;18.50;14.40
42002;PMS7003;27693;50.506;30.832;2023-12-20T04:33:39;20.90;15.60;12.70
42002;PMS7003;27693;50.506;30.832;2023-12-20T04:34:41;19.90;17.40;13.70
42002;PMS7003;27693;50.506;30.832;2023-12-20T04:35:48;16.50;16.40;12.40
42002;PMS7003;27693;50.506;30.832;2023-12-20T04:36:50;17.55;16.73;12.18
42002;PMS7003;27693;50.506;30.832;2023-12-20T04:37:55;19.90;16.70;12.30
42002;PMS7003;27693;50.506;30.832;2023-12-20T04:38:58;19.20;18.20;14.20
42002;PMS7003;27693;50.506;30.832;2023-12-20T04:40:01;19.20;16.20;12.70
42002;PMS7003;27693;50.506;30.832;2023-12-20T04:41:04;18.00;13.60;7.90
42002;PMS7003;27693;50.506;30.832;2023-12-20T04:42:07;16.91;15.45;11.82
42002;PMS7003;27693;50.506;30.832;2023-12-20T04:43:10;19.00;14.70;11.90
42002;PMS7003;27693;50.506;30.832;2023-12-20T04:44:12;20.40;16.20;12.40
42002;PMS7003;27693;50.506;30.832;2023-12-20T04:45:15;23.82;18.55;13.45
42002;PMS7003;27693;50.506;30.832;2023-12-20T04:46:20;20.60;16.40;12.70
42002;PMS7003;27693;50.506;30.832;2023-12-20T04:47:23;20.00;16.70;13.20
42002;PMS7003;27693;50.506;30.832;2023-12-20T04:48:25;17.00;15.90;12.20
42002;PMS7003;27693;50.506;30.832;2023-12-20T04:49:28;18.27;13.00;11.64
42002;PMS7003;27693;50.506;30.832;2023-12-20T04:50:33;22.30;19.10;15.00
42002;PMS7003;27693;50.506;30.832;2023-12-20T04:51:36;22.64;17.82;14.27
42002;PMS7003;27693;50.506;30.832;2023-12-20T04:52:40;24.10;17.20;11.90
42002;PMS7003;27693;50.506;30.832;2023-12-20T04:53:43;19.30;16.00;13.40
42002;PMS7003;27693;50.506;30.832;2023-12-20T04:54:46;18.64;16.64;11.55
42002;PMS7003;27693;50.506;30.832;2023-12-20T04:55:49;20.73;16.09;12.91
42002;PMS7003;27693;50.506;30.832;2023-12-20T04:56:51;16.30;13.80;10.10
42002;PMS7003;27693;50.506;30.832;2023-12-20T04:57:53;19.10;14.00;9.60
42002;PMS7003;27693;50.506;30.832;2023-12-20T04:58:56;20.09;17.45;13.36
42002;PMS7003;27693;50.506;30.832;2023-12-20T04:59:58;20.20;18.20;13.90
42002;PMS7003;27693;50.506;30.832;2023-12-20T05:01:01;19.50;16.80;12.80
42002;PMS7003;27693;50.506;30.832;2023-12-20T05:02:04;19.64;14.55;8.73
42002;PMS7003;27693;50.506;30.832;2023-12-20T05:03:06;15.70;11.80;9.20
42002;PMS7003;27693;50.506;30.832;2023-12-20T05:04:09;19.50;16.20;11.40
42002;PMS7003;27693;50.506;30.832;2023-12-20T05:05:12;23.00;17.30;12.40
42002;PMS7003;27693;50.506;30.832;2023-12-20T05:06:18;22.20;19.00;13.70
42002;PMS7003;27693;50.506;30.832;2023-12-20T05:07:21;19.36;17.73;12.82
42002;PMS7003;27693;50.506;30.832;2023-12-20T05:08:23;20.50;16.40;13.20
42002;PMS7003;27693;50.506;30.832;2023-12-20T05:09:26;22.55;16.00;12.91
42002;PMS7003;27693;50.506;30.832;2023-12-20T05:10:29;24.18;19.36;14.73
42002;PMS7003;27693;50.506;30.832;2023-12-20T05:11:31;23.20;19.10;13.90
42002;PMS7003;27693;50.506;30.832;2023-12-20T05:12:33;17.30;14.70;9.30
42002;PMS7003;27693;50.506;30.832;2023-12-20T05:13:37;20.70;18.10;13.90
42002;PMS7003;27693;50.506;30.832;2023-12-20T05:14:42;21.60;19.70;14.60
42002;PMS7003;27693;50.506;30.832;2023-12-20T05:15:44;22.30;18.90;14.40
42002;PMS7003;27693;50.506;30.832;2023-12-20T05:16:51;24.00;21.20;15.50
42002;PMS7003;27693;50.506;30.832;2023-12-20T05:17:54;27.36;22.36;16.00
42002;PMS7003;27693;50.506;30.832;2023-12-20T05:18:56;26.10;22.50;16.30
42002;PMS7003;27693;50.506;30.832;2023-12-20T05:20:00;29.40;26.90;19.50
42002;PMS7003;27693;50.506;30.832;2023-12-20T05:21:03;28.00;24.82;19.27
42002;PMS7003;27693;50.506;30.832;2023-12-20T05:22:06;28.91;25.00;19.36
42002;PMS7003;27693;50.506;30.832;2023-12-20T05:23:08;25.60;22.90;16.60
42002;PMS7003;27693;50.506;30.832;2023-12-20T05:24:10;26.00;22.00;16.70
42002;PMS7003;27693;50.506;30.832;2023-12-20T05:25:13;23.50;19.20;14.70
42002;PMS7003;27693;50.506;30.832;2023-12-20T05:26:17;25.60;24.90;18.30
42002;PMS7003;27693;50.506;30.832;2023-12-20T05:27:19;26.20;20.20;14.90
42002;PMS7003;27693;50.506;30.832;2023-12-20T05:28:21;29.90;23.70;17.40
42002;PMS7003;27693;50.506;30.832;2023-12-20T05:29:24;27.30;23.10;17.30
42002;PMS7003;27693;50.506;30.832;2023-12-20T05:30:28;24.30;19.80;15.40
42002;PMS7003;27693;50.506;30.832;2023-12-20T05:31:31;20.80;19.30;14.40
42002;PMS7003;27693;50.506;30.832;2023-12-20T05:32:34;26.60;23.30;16.40
42002;PMS7003;27693;50.506;30.832;2023-12-20T05:33:39;26.20;20.90;15.10
42002;PMS7003;27693;50.506;30.832;2023-12-20T05:34:42;23.40;22.80;15.40
42002;PMS7003;27693;50.506;30.832;2023-12-20T05:35:44;27.50;21.50;15.80
42002;PMS7003;27693;50.506;30.832;2023-12-20T05:36:54;25.80;21.90;16.40
42002;PMS7003;27693;50.506;30.832;2023-12-20T05:38:02;15.30;13.20;7.70
42002;PMS7003;27693;50.506;30.832;2023-12-20T05:39:07;25.20;20.50;15.80
42002;PMS7003;27693;50.506;30.832;2023-12-20T05:40:12;18.90;17.90;15.50
42002;PMS7003;27693;50.506;30.832;2023-12-20T05:41:15;26.20;22.90;15.70
42002;PMS7003;27693;50.506;30.832;2023-12-20T05:42:22;25.60;22.00;15.90
42002;PMS7003;27693;50.506;30.832;2023-12-20T05:43:27;24.90;21.00;15.50
42002;PMS7003;27693;50.506;30.832;2023-12-20T05:44:29;27.40;21.80;16.60
42002;PMS7003;27693;50.506;30.832;2023-12-20T05:45:32;22.73;19.64;14.18
42002;PMS7003;27693;50.506;30.832;2023-12-20T05:46:38;28.90;25.20;16.80
42002;PMS7003;27693;50.506;30.832;2023-12-20T05:47:43;19.60;15.20;10.70
42002;PMS7003;27693;50.506;30.832;2023-12-20T05:48:48;27.10;24.40;17.50
42002;PMS7003;27693;50.506;30.832;2023-12-20T05:49:52;22.20;16.80;11.50